Time;durP1;ratioP1;P1;durP2;ratioP2;P2;SDS_P1;SDS_P2;PMS_P1;PMS_P2;Temp;Humidity;BMP_temperature;BMP_pressure;BME280_temperature;BME280_humidity;BME280_pressure;Samples;Min_cycle;Max_cycle;Signal;HPM_P1;HPM_P2
2021/03/12 00:02:11;;;;;;;1.90;0.80;;;;;;;5.67;97.90;95498.63;5019908;28;20512;-92
2021/03/12 00:04:37;;;;;;;2.40;0.60;;;;;;;5.65;97.62;95498.44;5020659;28;20979;-91
2021/03/12 00:07:03;;;;;;;0.93;0.57;;;;;;;5.68;97.03;95508.06;5020185;28;20419;-91
2021/03/12 00:09:37;;;;;;;4.27;0.70;;;;;;;5.75;96.10;95505.44;5037072;28;20481;-95
2021/03/12 00:12:04;;;;;;;1.17;0.70;;;;;;;5.84;96.40;95512.25;5021552;28;20430;-86
2021/03/12 00:14:30;;;;;;;3.37;0.70;;;;;;;5.86;95.82;95504.44;5017623;28;20958;-85
2021/03/12 00:16:56;;;;;;;2.60;0.83;;;;;;;5.84;95.56;95512.97;5017021;28;20418;-86
2021/03/12 00:19:23;;;;;;;4.60;0.90;;;;;;;5.90;94.75;95510.16;5017567;28;20507;-86
2021/03/12 00:21:49;;;;;;;1.23;0.73;;;;;;;6.03;93.47;95512.72;5017390;28;21008;-86
2021/03/12 00:24:15;;;;;;;3.43;1.13;;;;;;;6.22;91.92;95513.16;5017169;28;20972;-86
2021/03/12 00:26:41;;;;;;;3.60;0.63;;;;;;;6.32;90.47;95510.69;5016732;28;20529;-86
2021/03/12 00:29:08;;;;;;;1.83;0.90;;;;;;;6.38;90.64;95521.94;5016755;28;20541;-86
2021/03/12 00:31:34;;;;;;;2.30;0.87;;;;;;;6.34;90.24;95529.59;5016928;28;20533;-85
2021/03/12 00:34:00;;;;;;;6.80;1.20;;;;;;;6.43;89.99;95526.41;5017056;28;20448;-86
2021/03/12 00:36:27;;;;;;;2.53;0.93;;;;;;;6.45;90.99;95531.97;5017207;28;20510;-86
2021/03/12 00:38:53;;;;;;;7.30;0.70;;;;;;;6.44;90.34;95539.28;5016882;28;20436;-86
2021/03/12 00:41:19;;;;;;;3.20;0.90;;;;;;;6.45;89.79;95529.97;5017057;28;20864;-86
2021/03/12 00:43:45;;;;;;;3.33;0.70;;;;;;;6.52;89.32;95538.56;5016780;28;20417;-86
2021/03/12 00:46:12;;;;;;;6.57;1.30;;;;;;;6.53;88.28;95545.38;5017223;28;20472;-85
2021/03/12 00:48:38;;;;;;;2.73;1.10;;;;;;;6.50;88.56;95551.78;5017529;28;20407;-86
2021/03/12 00:51:06;;;;;;;6.17;1.10;;;;;;;6.50;87.58;95549.13;5017166;28;20454;-86
2021/03/12 00:53:33;;;;;;;2.93;1.07;;;;;;;6.55;87.05;95554.31;5016389;28;20813;-86
2021/03/12 00:55:59;;;;;;;4.50;1.00;;;;;;;6.58;86.78;95557.91;5016759;28;20487;-87
2021/03/12 00:58:26;;;;;;;3.87;1.13;;;;;;;6.54;85.81;95565.56;5017382;28;20779;-87
2021/03/12 01:00:52;;;;;;;2.30;1.17;;;;;;;6.65;84.10;95573.25;5017300;28;20501;-87
2021/03/12 01:03:19;;;;;;;5.87;1.40;;;;;;;6.66;83.89;95578.09;5017674;28;20447;-87
2021/03/12 01:05:44;;;;;;;3.53;1.10;;;;;;;6.75;83.49;95580.28;5017178;28;20468;-87
2021/03/12 01:08:11;;;;;;;5.20;1.00;;;;;;;6.74;83.51;95580.78;5017317;28;20538;-87
2021/03/12 01:10:39;;;;;;;1.57;0.80;;;;;;;6.85;82.27;95569.75;5017026;28;20503;-87
2021/03/12 01:13:06;;;;;;;4.50;1.33;;;;;;;6.79;82.03;95586.00;5017427;28;20426;-87
2021/03/12 01:15:32;;;;;;;5.10;1.93;;;;;;;6.83;82.32;95599.75;5017373;28;20485;-87
2021/03/12 01:17:58;;;;;;;4.60;1.40;;;;;;;6.88;81.85;95584.75;5017344;28;20444;-87
2021/03/12 01:20:26;;;;;;;6.13;2.60;;;;;;;6.92;81.30;95601.91;5017292;28;20546;-87
2021/03/12 01:22:54;;;;;;;2.10;1.00;;;;;;;6.93;80.21;95598.00;5017883;28;20445;-87
2021/03/12 01:25:22;;;;;;;4.40;0.80;;;;;;;6.87;81.49;95612.81;5017451;28;20464;-87
2021/03/12 01:27:49;;;;;;;3.57;0.90;;;;;;;6.79;80.90;95604.78;5016723;28;20428;-87
2021/03/12 01:30:19;;;;;;;2.00;0.93;;;;;;;6.89;80.03;95611.03;5017280;28;20475;-88
2021/03/12 01:32:46;;;;;;;4.33;0.80;;;;;;;6.86;79.93;95603.34;5019942;28;20424;-87
2021/03/12 01:35:13;;;;;;;3.40;0.93;;;;;;;6.80;80.51;95606.19;5020641;28;20456;-87
2021/03/12 01:37:39;;;;;;;1.97;0.80;;;;;;;6.89;79.87;95610.34;5020650;28;20963;-86
2021/03/12 01:40:07;;;;;;;3.93;0.83;;;;;;;6.88;80.07;95600.84;5020135;28;20443;-87
2021/03/12 01:42:34;;;;;;;1.87;0.90;;;;;;;6.83;79.49;95615.13;5020884;28;20447;-87
2021/03/12 01:45:01;;;;;;;4.83;1.00;;;;;;;6.91;78.98;95619.28;5020388;28;20805;-87
2021/03/12 01:47:27;;;;;;;9.40;1.27;;;;;;;6.94;78.49;95625.53;5021322;28;20809;-87
2021/03/12 01:49:53;;;;;;;1.40;0.70;;;;;;;6.91;78.08;95623.91;5020975;28;20566;-85
2021/03/12 01:52:19;;;;;;;5.90;1.00;;;;;;;6.88;79.80;95630.34;5020286;28;20514;-85
2021/03/12 01:54:45;;;;;;;5.03;1.10;;;;;;;6.88;80.61;95638.38;5020519;28;20438;-83
2021/03/12 01:57:11;;;;;;;4.83;0.80;;;;;;;6.72;81.55;95661.03;5020418;28;20411;-84
2021/03/12 01:59:37;;;;;;;3.20;0.70;;;;;;;6.63;82.88;95659.59;5020138;28;20411;-84
2021/03/12 02:02:04;;;;;;;3.00;1.37;;;;;;;6.62;83.80;95660.09;5022623;28;21046;-84
2021/03/12 02:04:31;;;;;;;4.73;0.80;;;;;;;6.57;84.23;95667.06;5040677;28;20521;-86
2021/03/12 02:06:57;;;;;;;3.10;1.20;;;;;;;6.46;84.42;95668.06;5040937;28;20432;-86
2021/03/12 02:09:23;;;;;;;4.33;1.00;;;;;;;6.42;84.69;95670.38;5040773;28;20493;-86
2021/03/12 02:11:58;;;;;;;4.00;0.90;;;;;;;6.37;85.49;95668.56;5040889;28;20448;-86
2021/03/12 02:14:30;;;;;;;3.23;0.90;;;;;;;6.21;84.91;95659.03;5037602;28;20914;-87
2021/03/12 02:17:02;;;;;;;2.90;1.00;;;;;;;6.13;84.60;95652.91;5026735;28;20496;-87
2021/03/12 02:19:51;;;;;;;6.33;1.10;;;;;;;6.12;84.87;95651.47;5021560;28;20523;-87
2021/03/12 02:22:21;;;;;;;7.60;1.50;;;;;;;6.13;83.89;95646.84;5020529;28;20531;-87
2021/03/12 02:24:53;;;;;;;1.20;0.87;;;;;;;5.99;84.29;95643.53;5020476;28;20864;-86
2021/03/12 02:27:21;;;;;;;4.13;1.10;;;;;;;6.07;83.55;95647.00;5020839;28;20519;-87
2021/03/12 02:29:51;;;;;;;1.17;0.97;;;;;;;5.99;84.18;95645.50;5020501;28;20545;-87
2021/03/12 02:32:24;;;;;;;5.50;0.70;;;;;;;5.97;84.24;95645.31;5020208;28;20507;-86
2021/03/12 02:34:51;;;;;;;1.67;0.70;;;;;;;5.97;83.63;95653.34;5019857;28;20543;-86
2021/03/12 02:37:19;;;;;;;3.60;0.80;;;;;;;5.94;83.92;95652.44;5019191;28;20465;-85
2021/03/12 02:39:50;;;;;;;1.20;0.57;;;;;;;5.93;83.46;95651.72;5019805;28;20502;-84
2021/03/12 02:42:16;;;;;;;6.13;1.37;;;;;;;5.83;83.76;95652.69;5019000;28;20452;-85
2021/03/12 02:44:44;;;;;;;4.20;0.90;;;;;;;5.88;83.65;95651.88;5019166;28;20539;-85
2021/03/12 02:47:16;;;;;;;2.17;1.00;;;;;;;5.95;82.86;95648.53;5019167;28;20491;-85
2021/03/12 02:49:43;;;;;;;2.10;0.70;;;;;;;5.87;83.28;95650.41;5019250;28;20447;-85
2021/03/12 02:52:11;;;;;;;5.00;1.13;;;;;;;5.77;84.70;95638.72;5019267;28;20894;-83
2021/03/12 02:54:37;;;;;;;3.60;1.10;;;;;;;5.85;84.55;95650.22;5018659;28;20411;-85
2021/03/12 02:57:04;;;;;;;1.50;0.90;;;;;;;5.81;84.34;95644.47;5018899;28;20474;-85
2021/03/12 02:59:30;;;;;;;3.20;1.03;;;;;;;5.84;84.71;95648.78;5018364;28;20523;-84
2021/03/12 03:01:58;;;;;;;5.63;0.97;;;;;;;5.91;83.70;95640.09;5018580;28;21020;-83
2021/03/12 03:04:25;;;;;;;2.40;1.13;;;;;;;5.80;83.08;95645.69;5019078;28;20473;-84
2021/03/12 03:06:51;;;;;;;2.90;0.70;;;;;;;5.79;84.48;95644.28;5018231;28;20979;-85
2021/03/12 03:09:18;;;;;;;2.50;0.97;;;;;;;5.78;85.16;95643.56;5018531;28;20422;-84
2021/03/12 03:11:45;;;;;;;4.90;1.00;;;;;;;5.76;85.84;95651.38;5018692;28;20509;-85
2021/03/12 03:14:13;;;;;;;3.40;1.10;;;;;;;5.69;85.87;95646.00;5018623;28;20448;-84
2021/03/12 03:16:39;;;;;;;6.93;0.90;;;;;;;5.71;85.46;95646.19;5018429;28;20554;-85
2021/03/12 03:19:08;;;;;;;2.10;1.07;;;;;;;5.71;84.45;95644.22;5018491;28;20424;-85
2021/03/12 03:21:34;;;;;;;4.67;1.00;;;;;;;5.63;83.95;95646.13;5018498;28;20466;-85
2021/03/12 03:24:01;;;;;;;4.37;1.30;;;;;;;5.60;83.59;95652.53;5019012;28;20439;-85
2021/03/12 03:26:27;;;;;;;2.10;0.97;;;;;;;5.63;82.78;95658.78;5019048;28;20484;-85
2021/03/12 03:28:53;;;;;;;2.73;0.90;;;;;;;5.63;81.74;95659.53;5018170;28;20448;-84
2021/03/12 03:31:21;;;;;;;1.83;0.90;;;;;;;5.70;81.93;95666.16;5018473;28;20535;-86
2021/03/12 03:33:47;;;;;;;3.83;1.27;;;;;;;5.58;82.30;95667.66;5018440;28;20415;-86
2021/03/12 03:36:15;;;;;;;9.97;1.60;;;;;;;5.59;81.61;95667.16;5018807;28;20470;-86
2021/03/12 03:38:42;;;;;;;3.07;1.50;;;;;;;5.64;79.40;95677.00;5018828;28;20447;-86
2021/03/12 03:41:12;;;;;;;3.60;0.70;;;;;;;5.66;78.66;95692.53;5017954;28;20440;-85
2021/03/12 03:43:41;;;;;;;3.47;1.07;;;;;;;5.61;79.14;95693.38;5019964;28;20518;-85
2021/03/12 03:46:10;;;;;;;7.50;1.00;;;;;;;5.65;76.83;95699.13;5035464;28;20468;-86
2021/03/12 03:48:38;;;;;;;3.70;0.90;;;;;;;5.67;76.46;95710.72;5035272;28;20456;-84
2021/03/12 03:51:07;;;;;;;7.30;1.47;;;;;;;5.68;76.26;95720.19;5020005;28;20519;-85
2021/03/12 03:53:36;;;;;;;4.83;1.03;;;;;;;5.66;75.65;95733.41;5018806;28;20504;-85
2021/03/12 03:56:04;;;;;;;3.70;1.00;;;;;;;5.70;74.66;95738.44;5019614;28;20472;-85
2021/03/12 03:58:32;;;;;;;7.93;0.97;;;;;;;5.70;74.29;95743.78;5019066;28;20503;-85
2021/03/12 04:00:59;;;;;;;1.57;0.80;;;;;;;5.64;74.49;95732.50;5019187;28;20523;-85
2021/03/12 04:03:25;;;;;;;2.37;0.77;;;;;;;5.66;73.72;95744.09;5019008;28;20436;-87
2021/03/12 04:05:55;;;;;;;5.30;0.90;;;;;;;5.70;72.97;95752.50;5018693;28;20517;-87
2021/03/12 04:08:22;;;;;;;4.00;1.10;;;;;;;5.66;73.00;95752.13;5018439;28;20447;-85
2021/03/12 04:10:50;;;;;;;1.77;0.83;;;;;;;5.65;73.40;95753.38;5017910;28;20483;-85
2021/03/12 04:13:17;;;;;;;7.67;1.77;;;;;;;5.73;72.72;95764.16;5018593;28;20504;-85
2021/03/12 04:15:43;;;;;;;1.90;1.00;;;;;;;5.64;72.88;95764.59;5018863;28;20486;-83
2021/03/12 04:18:11;;;;;;;9.20;1.00;;;;;;;5.60;72.75;95761.53;5017750;28;20533;-84
2021/03/12 04:20:37;;;;;;;5.43;1.00;;;;;;;5.66;72.91;95767.47;5017738;28;20464;-83
2021/03/12 04:23:04;;;;;;;4.80;1.20;;;;;;;5.75;71.87;95767.72;5017793;28;20490;-84
2021/03/12 04:25:32;;;;;;;7.73;1.80;;;;;;;5.74;72.20;95773.59;5018552;28;20882;-86
2021/03/12 04:27:59;;;;;;;1.73;0.90;;;;;;;5.66;71.30;95778.91;5018246;28;20543;-86
2021/03/12 04:30:26;;;;;;;4.50;1.10;;;;;;;5.65;72.03;95774.78;5018851;28;20484;-86
2021/03/12 04:32:52;;;;;;;5.90;1.10;;;;;;;5.68;72.31;95775.69;5018517;28;20535;-86
2021/03/12 04:35:19;;;;;;;6.33;1.13;;;;;;;5.73;70.81;95785.56;5017612;28;20427;-87
2021/03/12 04:37:46;;;;;;;4.40;1.23;;;;;;;5.75;71.00;95778.44;5017519;28;20421;-85
2021/03/12 04:40:14;;;;;;;3.70;0.90;;;;;;;5.86;71.28;95793.53;5017915;28;20506;-85
2021/03/12 04:42:42;;;;;;;4.40;0.77;;;;;;;5.84;71.30;95790.66;5017724;28;20467;-87
2021/03/12 04:45:11;;;;;;;5.00;1.10;;;;;;;5.79;71.01;95791.50;5018282;28;20528;-87
2021/03/12 04:47:38;;;;;;;6.07;1.07;;;;;;;5.78;71.82;95795.41;5018284;28;20424;-86
2021/03/12 04:50:08;;;;;;;3.80;1.00;;;;;;;5.82;71.19;95793.13;5017871;28;20574;-85
2021/03/12 04:52:35;;;;;;;15.53;1.93;;;;;;;5.84;71.58;95801.34;5017783;28;20468;-84
2021/03/12 04:55:01;;;;;;;2.70;1.17;;;;;;;5.83;69.81;95805.97;5017112;28;20446;-83
2021/03/12 04:57:28;;;;;;;4.87;1.13;;;;;;;5.73;70.01;95804.28;5018024;28;20489;-85
2021/03/12 04:59:55;;;;;;;2.77;1.37;;;;;;;5.81;69.58;95805.78;5017772;28;20444;-85
2021/03/12 05:02:22;;;;;;;5.63;1.20;;;;;;;5.79;68.78;95804.88;5032892;28;20439;-86
2021/03/12 05:04:50;;;;;;;5.77;2.70;;;;;;;5.70;68.43;95794.63;5036356;28;20478;-86
2021/03/12 05:07:18;;;;;;;2.50;0.83;;;;;;;5.81;68.36;95816.50;5038675;28;20464;-86
2021/03/12 05:09:44;;;;;;;4.53;1.10;;;;;;;5.75;68.46;95807.16;5037085;28;21000;-85
2021/03/12 05:12:12;;;;;;;11.27;1.57;;;;;;;5.72;68.61;95803.56;5021594;28;20458;-84
2021/03/12 05:14:38;;;;;;;6.33;2.10;;;;;;;5.65;68.32;95806.88;5023582;28;20517;-83
2021/03/12 05:17:04;;;;;;;5.37;1.00;;;;;;;5.66;68.77;95810.28;5021306;28;20420;-84
2021/03/12 05:19:31;;;;;;;2.03;0.77;;;;;;;5.64;69.14;95810.78;5021258;28;20440;-84
2021/03/12 05:21:57;;;;;;;4.50;1.37;;;;;;;5.57;68.98;95808.06;5021442;28;20522;-85
2021/03/12 05:24:23;;;;;;;3.70;1.00;;;;;;;5.54;68.87;95811.75;5024899;28;20415;-85
2021/03/12 05:26:49;;;;;;;6.67;1.27;;;;;;;5.50;69.60;95811.34;5026533;28;20419;-85
2021/03/12 05:29:15;;;;;;;4.80;1.33;;;;;;;5.44;70.12;95813.44;5023556;28;20441;-87
2021/03/12 05:31:41;;;;;;;5.63;1.30;;;;;;;5.39;70.73;95818.38;5023653;28;20470;-87
2021/03/12 05:34:07;;;;;;;3.50;1.00;;;;;;;5.42;71.11;95813.94;5023152;28;20443;-87
2021/03/12 05:36:38;;;;;;;4.83;1.00;;;;;;;5.42;71.42;95821.28;5022069;28;20442;-87
2021/03/12 05:39:04;;;;;;;5.13;1.13;;;;;;;5.51;71.23;95818.16;5022658;28;20523;-88
2021/03/12 05:41:31;;;;;;;9.27;2.00;;;;;;;5.49;71.46;95818.66;5022627;28;20582;-88
2021/03/12 05:44:03;;;;;;;6.13;1.07;;;;;;;5.52;71.76;95812.28;5021796;28;20628;-85
2021/03/12 05:46:29;;;;;;;7.77;1.43;;;;;;;5.57;72.22;95816.09;5023084;28;20525;-85
2021/03/12 05:48:56;;;;;;;4.87;1.00;;;;;;;5.56;72.13;95819.97;5022502;28;20501;-86
2021/03/12 05:51:23;;;;;;;8.80;1.57;;;;;;;5.49;72.64;95820.63;5021564;28;20461;-84
2021/03/12 05:53:50;;;;;;;3.20;1.20;;;;;;;5.51;72.70;95818.88;5021645;28;20448;-85
2021/03/12 05:56:18;;;;;;;8.67;1.63;;;;;;;5.57;73.10;95821.44;5021786;28;20926;-86
2021/03/12 05:58:44;;;;;;;5.03;1.10;;;;;;;5.60;72.98;95820.38;5022298;28;20414;-85
2021/03/12 06:01:11;;;;;;;7.07;1.27;;;;;;;5.77;72.80;95820.72;5021300;28;20507;-87
2021/03/12 06:03:37;;;;;;;2.50;1.20;;;;;;;6.07;72.49;95817.66;5022914;28;20471;-87
2021/03/12 06:06:04;;;;;;;3.73;1.10;;;;;;;6.39;70.48;95810.06;5022581;28;20545;-87
2021/03/12 06:08:31;;;;;;;4.63;1.00;;;;;;;6.56;69.37;95813.03;5021685;28;20429;-88
2021/03/12 06:10:58;;;;;;;6.57;1.50;;;;;;;6.53;69.49;95813.34;5022520;28;20455;-87
2021/03/12 06:13:24;;;;;;;3.40;1.10;;;;;;;6.61;70.03;95822.19;5022735;28;20854;-87
2021/03/12 06:15:50;;;;;;;7.43;1.90;;;;;;;6.77;69.50;95810.28;5021042;28;20558;-86
2021/03/12 06:18:20;;;;;;;8.90;1.27;;;;;;;7.04;67.98;95811.50;5021055;28;20452;-86
2021/03/12 06:20:47;;;;;;;7.10;1.57;;;;;;;7.27;67.53;95820.38;5021218;28;20920;-87
2021/03/12 06:23:31;;;;;;;6.70;1.10;;;;;;;7.62;66.18;95816.19;5021907;28;20411;-86
2021/03/12 06:25:58;;;;;;;2.43;0.97;;;;;;;7.69;66.96;95809.41;5022910;28;20470;-87
2021/03/12 06:28:24;;;;;;;5.23;1.20;;;;;;;7.68;66.46;95805.28;5022733;28;20419;-87
2021/03/12 06:30:51;;;;;;;4.60;1.17;;;;;;;7.65;66.85;95823.19;5023030;28;20583;-87
2021/03/12 06:33:28;;;;;;;4.60;0.90;;;;;;;7.88;66.72;95815.19;5024139;28;20509;-86
2021/03/12 06:35:54;;;;;;;2.67;1.20;;;;;;;8.15;66.17;95826.31;5021902;28;20532;-87
2021/03/12 06:38:21;;;;;;;6.50;1.43;;;;;;;7.93;66.50;95833.81;5022400;28;20456;-86
2021/03/12 06:40:47;;;;;;;3.13;1.23;;;;;;;8.16;66.68;95841.19;5021937;28;20422;-87
2021/03/12 06:43:16;;;;;;;7.20;1.70;;;;;;;8.64;65.63;95844.81;5022779;28;20419;-86
2021/03/12 06:46:02;;;;;;;2.50;0.80;;;;;;;9.11;63.35;95850.28;5022791;28;20449;-86
2021/03/12 06:48:30;;;;;;;5.70;1.60;;;;;;;9.52;61.97;95854.47;5022391;28;20429;-87
2021/03/12 06:50:58;;;;;;;8.03;1.30;;;;;;;9.34;62.87;95864.38;5023429;28;20508;-86
2021/03/12 06:53:27;;;;;;;4.90;1.27;;;;;;;9.16;63.39;95865.50;5022205;28;20458;-87
2021/03/12 06:55:54;;;;;;;2.83;1.00;;;;;;;8.98;63.64;95861.25;5022057;28;20559;-85
2021/03/12 06:58:29;;;;;;;2.63;1.00;;;;;;;8.99;66.02;95860.69;5028689;28;20415;-91
2021/03/12 07:00:56;;;;;;;6.10;1.37;;;;;;;8.48;65.89;95866.31;5026943;28;20573;-92
2021/03/12 07:03:29;;;;;;;4.30;1.27;;;;;;;8.22;66.78;95866.63;5024604;28;20415;-92
2021/03/12 07:06:07;;;;;;;7.73;1.40;;;;;;;8.04;67.78;95878.44;5023483;28;20460;-92
2021/03/12 07:08:41;;;;;;;2.87;1.00;;;;;;;7.93;68.85;95868.72;5023447;28;20402;-89
2021/03/12 07:11:23;;;;;;;4.87;0.90;;;;;;;8.12;69.01;95868.41;5024390;28;20443;-91
2021/03/12 07:13:52;;;;;;;5.20;1.73;;;;;;;8.77;67.83;95874.19;5023018;28;20410;-91
2021/03/12 07:16:19;;;;;;;5.80;1.83;;;;;;;9.14;65.73;95876.84;5024756;28;20468;-91
2021/03/12 07:18:46;;;;;;;3.77;0.83;;;;;;;9.55;64.65;95883.00;5024505;28;20790;-92
2021/03/12 07:21:13;;;;;;;3.83;1.23;;;;;;;10.01;62.99;95880.81;5022720;28;20458;-92
2021/03/12 07:23:43;;;;;;;3.53;1.13;;;;;;;10.29;62.35;95890.53;5024113;28;20423;-93
2021/03/12 07:26:13;;;;;;;5.87;1.30;;;;;;;10.82;60.89;95892.84;5021650;28;20452;-92
2021/03/12 07:28:41;;;;;;;3.70;0.87;;;;;;;11.34;58.50;95899.03;5022215;28;20506;-91
2021/03/12 07:31:11;;;;;;;3.33;1.07;;;;;;;11.37;58.29;95906.72;5022550;28;20487;-93
2021/03/12 07:33:40;;;;;;;4.10;1.30;;;;;;;11.21;58.03;95908.16;5025544;28;20415;-94
2021/03/12 07:36:10;;;;;;;2.03;0.80;;;;;;;11.02;58.19;95908.69;5027831;28;20514;-93
2021/03/12 07:38:37;;;;;;;2.63;0.90;;;;;;;11.10;59.19;95914.72;5023440;28;20479;-93
2021/03/12 07:41:05;;;;;;;7.73;0.80;;;;;;;10.74;58.54;95911.81;5022703;28;20421;-91
2021/03/12 07:43:35;;;;;;;4.47;1.50;;;;;;;10.84;59.00;95914.63;5020492;28;20422;-87
2021/03/12 07:46:04;;;;;;;2.87;1.10;;;;;;;10.20;60.09;95908.03;5020650;28;20483;-88
2021/03/12 07:48:32;;;;;;;6.60;1.30;;;;;;;9.47;62.22;95914.59;5024330;28;20448;-90
2021/03/12 07:51:10;;;;;;;9.70;1.13;;;;;;;9.27;62.98;95913.56;5024221;28;20461;-92
2021/03/12 07:53:53;;;;;;;1.80;0.87;;;;;;;9.19;63.09;95920.22;5024605;28;20419;-92
2021/03/12 07:56:54;;;;;;;6.00;1.40;;;;;;;9.13;63.28;95920.44;5038093;28;20444;-93
2021/03/12 07:59:58;;;;;;;3.87;1.73;;;;;;;8.91;64.02;95927.28;5038099;28;20386;-92
2021/03/12 08:02:24;;;;;;;4.00;0.77;;;;;;;8.78;63.97;95940.19;5038813;28;20435;-90
2021/03/12 08:04:51;;;;;;;5.30;0.70;;;;;;;9.03;64.32;95933.72;5038157;28;20496;-90
2021/03/12 08:07:33;;;;;;;5.10;1.47;;;;;;;9.61;61.92;95940.78;5026856;28;20483;-87
2021/03/12 08:10:16;;;;;;;8.10;1.83;;;;;;;9.65;62.12;95941.13;5026743;28;20823;-89
2021/03/12 08:12:42;;;;;;;3.20;1.00;;;;;;;9.94;61.75;95941.56;5022035;28;20447;-89
2021/03/12 08:15:13;;;;;;;2.20;1.20;;;;;;;10.24;60.46;95942.72;5021864;28;20467;-88
2021/03/12 08:17:42;;;;;;;4.70;1.43;;;;;;;10.55;59.70;95939.28;5026688;28;20484;-93
2021/03/12 08:20:30;;;;;;;1.90;0.70;;;;;;;10.65;58.64;95945.50;5034204;28;20438;-93
2021/03/12 08:46:25;;;;;;;2.23;1.00;;;;;;;10.31;57.74;95928.44;5032909;28;20475;-89
2021/03/12 08:49:06;;;;;;;5.87;1.37;;;;;;;10.29;58.40;95922.91;5033878;28;20422;-89
2021/03/12 08:51:33;;;;;;;2.20;0.83;;;;;;;10.17;58.92;95917.94;5031772;28;20479;-90
2021/03/12 08:54:01;;;;;;;2.63;1.00;;;;;;;10.17;58.85;95923.34;5038995;28;20435;-91
2021/03/12 08:56:30;;;;;;;1.40;0.87;;;;;;;10.28;59.12;95914.09;5033842;28;20454;-87
2021/03/12 08:58:57;;;;;;;4.03;1.40;;;;;;;10.22;59.55;95929.75;5033817;28;20423;-92
2021/03/12 09:01:26;;;;;;;4.77;0.80;;;;;;;10.11;59.35;95916.69;5034233;28;20710;-90
2021/03/12 09:03:54;;;;;;;5.07;1.27;;;;;;;9.90;58.84;95918.97;5032241;28;20447;-91
2021/03/12 09:06:24;;;;;;;6.93;1.27;;;;;;;10.01;57.81;95913.16;5037394;28;20441;-93
2021/03/12 09:08:50;;;;;;;4.77;1.00;;;;;;;10.17;57.80;95915.25;5035360;28;20724;-90
2021/03/12 09:11:19;;;;;;;4.20;0.80;;;;;;;10.41;56.48;95913.13;5030564;28;20488;-91
2021/03/12 09:13:53;;;;;;;1.57;0.57;;;;;;;10.45;55.13;95916.88;5033262;28;20439;-90
2021/03/12 09:16:25;;;;;;;3.60;0.90;;;;;;;10.32;53.38;95908.31;5030822;28;20488;-90
2021/03/12 09:18:54;;;;;;;2.90;1.40;;;;;;;10.09;54.53;95916.50;5034173;28;20439;-94
2021/03/12 09:21:22;;;;;;;3.20;1.00;;;;;;;9.98;55.56;95908.84;5039588;28;20411;-95
2021/03/12 09:23:50;;;;;;;7.73;1.00;;;;;;;9.83;55.85;95917.00;5036222;28;20419;-90
2021/03/12 09:26:18;;;;;;;2.93;0.97;;;;;;;9.77;57.37;95913.78;5025059;28;20467;-89
2021/03/12 09:28:47;;;;;;;4.90;1.40;;;;;;;9.65;57.21;95916.88;5026138;28;20415;-88
2021/03/12 09:31:17;;;;;;;2.47;1.03;;;;;;;9.54;57.39;95909.22;5027768;28;20447;-89
2021/03/12 09:33:45;;;;;;;11.13;2.67;;;;;;;9.39;57.59;95911.94;5029623;28;20438;-93
2021/03/12 09:36:31;;;;;;;3.83;0.90;;;;;;;9.49;58.02;95920.19;5035770;28;20448;-94
2021/03/12 09:39:07;;;;;;;3.20;1.00;;;;;;;9.56;57.98;95912.06;5038420;28;20405;-94
2021/03/12 09:41:34;;;;;;;6.97;1.57;;;;;;;9.64;57.80;95907.38;5038955;28;20412;-94
2021/03/12 09:44:09;;;;;;;3.70;1.43;;;;;;;9.56;57.79;95905.97;5034099;28;20395;-94
2021/03/12 09:46:39;;;;;;;3.83;1.33;;;;;;;9.55;58.04;95907.25;5034532;28;20442;-93
2021/03/12 09:49:12;;;;;;;1.90;0.93;;;;;;;9.84;57.71;95908.38;5040477;28;20446;-93
2021/03/12 10:07:21;;;;;;;2.40;1.00;;;;;;;9.85;56.33;95909.09;5043611;28;20429;-90
2021/03/12 10:09:49;;;;;;;6.60;1.10;;;;;;;9.78;56.98;95905.16;5053738;28;20422;-92
2021/03/12 10:12:18;;;;;;;3.97;1.13;;;;;;;9.59;57.22;95908.28;5052241;28;20443;-90
2021/03/12 10:14:45;;;;;;;2.10;0.70;;;;;;;9.41;58.30;95916.78;5046640;28;21056;-90
2021/03/12 10:17:15;;;;;;;2.10;0.90;;;;;;;9.26;58.91;95901.38;5044738;28;20467;-90
2021/03/12 10:19:53;;;;;;;1.60;1.03;;;;;;;9.18;59.34;95913.44;5048860;28;20418;-91
2021/03/12 10:22:23;;;;;;;3.70;0.90;;;;;;;9.12;60.00;95908.22;5047613;28;20486;-92
2021/03/12 10:25:08;;;;;;;3.53;1.23;;;;;;;9.10;60.70;95916.84;5047912;28;20479;-91
2021/03/12 10:27:57;;;;;;;4.60;1.33;;;;;;;9.13;63.61;95921.16;5050178;28;20507;-93
2021/03/12 10:51:00;;;;;;;2.40;1.00;;;;;;;9.89;64.99;95904.75;5060231;28;20493;-88
2021/03/12 10:53:31;;;;;;;2.90;1.00;;;;;;;10.08;64.79;95898.91;5065691;28;20421;-88
2021/03/12 10:56:02;;;;;;;3.87;0.90;;;;;;;10.03;64.41;95891.75;5078562;28;20465;-88
2021/03/12 11:29:42;;;;;;;6.07;1.10;;;;;;;10.56;52.50;95851.69;5093513;28;20474;-91
2021/03/12 11:32:08;;;;;;;3.40;0.73;;;;;;;10.65;53.73;95845.66;5094765;28;20471;-91
2021/03/12 11:34:35;;;;;;;2.10;0.90;;;;;;;10.90;54.67;95839.53;5092823;28;20452;-92
2021/03/12 11:37:03;;;;;;;3.27;0.70;;;;;;;11.18;54.12;95841.75;5096395;28;20511;-91
2021/03/12 11:39:29;;;;;;;2.50;0.70;;;;;;;11.28;53.45;95820.94;5085455;28;20503;-90
2021/03/12 11:41:55;;;;;;;4.03;1.33;;;;;;;11.29;53.05;95839.28;5084323;28;20409;-87
2021/03/12 11:44:21;;;;;;;2.20;0.87;;;;;;;11.47;51.97;95844.66;5082719;28;20520;-88
2021/03/12 11:46:48;;;;;;;4.50;0.80;;;;;;;11.22;50.57;95834.69;5081359;28;20465;-88
2021/03/12 11:49:14;;;;;;;2.60;1.30;;;;;;;11.23;50.90;95819.91;5085077;28;20465;-89
2021/03/12 11:51:41;;;;;;;2.03;0.63;;;;;;;11.05;50.64;95826.59;5083482;28;20501;-91
2021/03/12 11:54:08;;;;;;;4.90;1.20;;;;;;;11.24;50.68;95815.22;5083031;28;20449;-89
2021/03/12 11:56:34;;;;;;;4.43;1.70;;;;;;;11.40;50.81;95826.56;5083424;28;20852;-87
2021/03/12 11:59:01;;;;;;;2.37;1.37;;;;;;;11.45;50.16;95818.22;5082064;28;20501;-89
2021/03/12 12:01:32;;;;;;;3.63;1.10;;;;;;;11.26;47.78;95801.88;5080941;28;20445;-89
2021/03/12 12:03:59;;;;;;;1.37;0.60;;;;;;;11.31;46.17;95814.41;5082922;28;20466;-89
2021/03/12 12:06:25;;;;;;;2.50;0.90;;;;;;;11.38;45.33;95813.59;5081620;28;20449;-89
2021/03/12 12:08:54;;;;;;;5.03;0.80;;;;;;;11.38;46.45;95808.22;5081438;28;20453;-88
2021/03/12 12:11:25;;;;;;;8.47;1.20;;;;;;;11.30;48.00;95813.00;5083078;28;20477;-88
2021/03/12 12:13:54;;;;;;;4.10;1.20;;;;;;;11.31;54.84;95808.31;5083462;28;20969;-90
2021/03/12 12:16:20;;;;;;;4.60;1.13;;;;;;;11.59;55.01;95822.00;5083231;28;20488;-91
2021/03/12 12:18:46;;;;;;;2.53;1.00;;;;;;;11.75;52.83;95809.75;5084912;28;20513;-92
2021/03/12 12:21:13;;;;;;;2.80;1.50;;;;;;;11.66;52.96;95806.97;5083149;28;20430;-89
2021/03/12 12:23:40;;;;;;;4.23;1.20;;;;;;;11.54;54.50;95804.06;5082743;28;20521;-90
2021/03/12 12:26:06;;;;;;;5.13;1.00;;;;;;;11.51;55.14;95815.97;5083754;28;20453;-91
2021/03/12 12:28:32;;;;;;;5.43;1.20;;;;;;;11.61;56.75;95805.94;5089086;28;20461;-93
2021/03/12 12:31:01;;;;;;;3.30;1.30;;;;;;;11.73;57.07;95803.47;5085720;28;20507;-90
2021/03/12 12:33:28;;;;;;;4.10;1.07;;;;;;;11.89;55.70;95804.69;5087374;28;20445;-92
2021/03/12 12:35:55;;;;;;;4.53;1.00;;;;;;;12.06;54.51;95801.22;5087282;28;20453;-91
2021/03/12 12:38:40;;;;;;;3.70;1.60;;;;;;;11.98;53.79;95795.91;5087912;28;20475;-91
2021/03/12 12:41:07;;;;;;;3.20;1.10;;;;;;;12.00;54.60;95804.16;5086447;28;20441;-90
2021/03/12 12:43:33;;;;;;;3.40;0.90;;;;;;;12.04;51.81;95798.34;5085627;28;20487;-90
2021/03/12 12:46:03;;;;;;;2.50;0.97;;;;;;;11.85;49.40;95790.88;5089977;28;20485;-92
2021/03/12 12:48:30;;;;;;;4.33;1.10;;;;;;;11.68;49.47;95785.50;5088395;28;20442;-91
2021/03/12 12:50:56;;;;;;;1.80;0.70;;;;;;;11.47;49.53;95783.25;5085481;28;21047;-89
2021/03/12 12:53:26;;;;;;;1.30;0.90;;;;;;;11.67;50.08;95779.38;5085081;28;20426;-91
2021/03/12 12:56:02;;;;;;;1.70;1.20;;;;;;;11.52;47.72;95776.88;5087888;28;20446;-90
2021/03/12 12:58:32;;;;;;;2.67;1.00;;;;;;;11.27;49.40;95776.31;5087846;28;20451;-94
2021/03/12 13:01:04;;;;;;;2.53;0.60;;;;;;;11.12;47.94;95776.47;5087383;28;20481;-90
2021/03/12 13:03:31;;;;;;;5.50;3.23;;;;;;;10.99;47.27;95766.00;5087384;28;20434;-90
2021/03/12 13:05:57;;;;;;;2.00;1.03;;;;;;;10.91;48.32;95773.47;5084082;28;20447;-88
2021/03/12 13:08:24;;;;;;;4.47;0.87;;;;;;;10.87;46.78;95778.56;5082943;28;20524;-87
2021/03/12 13:10:51;;;;;;;2.10;0.70;;;;;;;10.79;47.04;95772.50;5081514;28;20520;-88
2021/03/12 13:13:17;;;;;;;2.40;0.87;;;;;;;10.84;46.74;95768.88;5081923;28;20588;-88
2021/03/12 13:15:43;;;;;;;6.50;1.00;;;;;;;10.79;46.41;95769.81;5080869;28;21021;-88
2021/03/12 13:18:10;;;;;;;6.10;1.10;;;;;;;10.65;47.66;95778.22;5081721;28;20452;-88